Time;durP1;ratioP1;P1;durP2;ratioP2;P2;SDS_P1;SDS_P2;PMS_P1;PMS_P2;Temp;Humidity;BMP_temperature;BMP_pressure;BME280_temperature;BME280_humidity;BME280_pressure;Samples;Min_cycle;Max_cycle;Signal;HPM_P1;HPM_P2
2020/12/26 00:00:19;;;;;;;7.47;5.03;;;;;;;;;;5071877;28;20480;-75
2020/12/26 00:03:27;;;;;;;6.68;4.45;;;;;;;;;;5072032;28;20036;-75
2020/12/26 00:06:32;;;;;;;9.52;5.00;;;;;;;;;;5071579;28;20049;-75
2020/12/26 00:09:36;;;;;;;8.35;4.80;;;;;;;;;;5072031;28;20044;-75
2020/12/26 00:12:40;;;;;;;7.63;4.60;;;;;;;;;;5071937;28;20048;-75
2020/12/26 00:15:44;;;;;;;8.45;3.85;;;;;;;;;;5071069;28;20055;-75
2020/12/26 00:18:49;;;;;;;5.38;4.05;;;;;;;;;;5071715;28;20036;-75
2020/12/26 00:21:53;;;;;;;5.63;3.95;;;;;;;;;;5071753;28;20037;-75
2020/12/26 00:24:58;;;;;;;6.30;3.97;;;;;;;;;;5071682;28;20036;-75
2020/12/26 00:28:02;;;;;;;5.80;3.97;;;;;;;;;;5070540;28;20044;-75
2020/12/26 00:31:06;;;;;;;7.47;4.38;;;;;;;;;;5071658;28;20032;-75
2020/12/26 00:34:10;;;;;;;4.78;3.33;;;;;;;;;;5071408;28;20369;-75
2020/12/26 00:37:18;;;;;;;6.13;3.63;;;;;;;;;;5071300;28;20044;-75
2020/12/26 00:40:22;;;;;;;6.20;4.13;;;;;;;;;;5071530;28;20480;-75
2020/12/26 00:43:27;;;;;;;5.78;3.42;;;;;;;;;;5071534;28;20040;-75
2020/12/26 00:46:31;;;;;;;5.45;3.22;;;;;;;;;;5070856;28;20501;-75
2020/12/26 00:49:36;;;;;;;4.88;3.45;;;;;;;;;;5071373;28;20024;-75
2020/12/26 00:52:41;;;;;;;6.18;3.90;;;;;;;;;;5070570;28;20037;-75
2020/12/26 00:55:46;;;;;;;9.18;4.18;;;;;;;;;;5070349;28;20048;-75
2020/12/26 00:58:50;;;;;;;9.30;4.85;;;;;;;;;;5071480;28;20041;-75
2020/12/26 01:01:55;;;;;;;7.35;5.13;;;;;;;;;;5070443;28;20044;-75
2020/12/26 01:05:08;;;;;;;5.72;4.05;;;;;;;;;;5070489;28;20389;-75
2020/12/26 01:08:12;;;;;;;7.20;4.68;;;;;;;;;;5071208;28;20044;-75
2020/12/26 01:11:16;;;;;;;6.85;4.68;;;;;;;;;;5071159;28;20587;-75
2020/12/26 01:14:20;;;;;;;8.77;4.68;;;;;;;;;;5071185;28;20040;-75
2020/12/26 01:17:25;;;;;;;11.07;5.78;;;;;;;;;;5072372;28;20032;-75
2020/12/26 01:20:29;;;;;;;8.48;5.70;;;;;;;;;;5075299;28;20047;-75
2020/12/26 01:23:34;;;;;;;11.20;6.18;;;;;;;;;;5074153;28;20033;-75
2020/12/26 01:26:38;;;;;;;9.90;5.85;;;;;;;;;;5074881;28;20048;-75
2020/12/26 01:29:43;;;;;;;10.95;6.57;;;;;;;;;;5074890;28;20040;-75
2020/12/26 01:32:48;;;;;;;8.63;5.90;;;;;;;;;;5074921;28;20036;-75
2020/12/26 01:35:52;;;;;;;6.97;5.13;;;;;;;;;;5074900;28;20040;-75
2020/12/26 01:38:56;;;;;;;8.20;4.68;;;;;;;;;;5074823;28;20029;-75
2020/12/26 01:42:01;;;;;;;8.07;4.63;;;;;;;;;;5074868;28;20041;-75
2020/12/26 01:45:06;;;;;;;6.70;4.00;;;;;;;;;;5074594;28;20040;-75
2020/12/26 01:48:13;;;;;;;5.07;3.75;;;;;;;;;;5074587;28;20048;-75
2020/12/26 01:51:18;;;;;;;6.45;4.40;;;;;;;;;;5074684;28;20032;-75
2020/12/26 01:54:22;;;;;;;7.28;4.03;;;;;;;;;;5074496;28;20464;-75
2020/12/26 01:57:33;;;;;;;5.25;3.95;;;;;;;;;;5074354;28;20033;-75
2020/12/26 02:00:38;;;;;;;7.95;3.80;;;;;;;;;;5074292;28;20044;-75
2020/12/26 02:03:44;;;;;;;5.40;3.78;;;;;;;;;;5074190;28;20040;-75
2020/12/26 02:06:57;;;;;;;6.05;3.53;;;;;;;;;;5073927;28;20048;-75
2020/12/26 02:10:01;;;;;;;6.93;3.63;;;;;;;;;;5074295;28;20049;-75
2020/12/26 02:13:05;;;;;;;7.85;3.38;;;;;;;;;;5074203;28;20488;-75
2020/12/26 02:16:13;;;;;;;6.95;3.30;;;;;;;;;;5074235;28;20036;-75
2020/12/26 02:19:19;;;;;;;3.45;2.78;;;;;;;;;;5073817;28;20032;-74
2020/12/26 02:22:23;;;;;;;8.45;3.10;;;;;;;;;;5074202;28;20037;-75
2020/12/26 02:25:28;;;;;;;5.22;2.90;;;;;;;;;;5073961;28;20040;-75
2020/12/26 02:28:32;;;;;;;4.88;3.10;;;;;;;;;;5073890;28;20048;-75
2020/12/26 02:31:37;;;;;;;5.25;3.08;;;;;;;;;;5073687;28;20369;-75
2020/12/26 02:34:41;;;;;;;7.30;3.60;;;;;;;;;;5073679;28;20032;-75
2020/12/26 02:37:45;;;;;;;8.82;4.63;;;;;;;;;;5073788;28;20036;-75
2020/12/26 02:40:50;;;;;;;6.60;3.75;;;;;;;;;;5073459;28;20365;-75
2020/12/26 02:43:54;;;;;;;7.32;4.28;;;;;;;;;;5073709;28;20037;-75
2020/12/26 02:46:58;;;;;;;6.97;3.97;;;;;;;;;;5073161;28;20204;-75
2020/12/26 02:50:03;;;;;;;6.97;4.25;;;;;;;;;;5073617;28;20036;-75
2020/12/26 02:53:08;;;;;;;8.02;4.20;;;;;;;;;;5084294;28;20358;-75
2020/12/26 02:56:13;;;;;;;4.95;3.78;;;;;;;;;;5073513;28;20032;-75
2020/12/26 02:59:17;;;;;;;6.95;3.83;;;;;;;;;;5073422;28;20036;-75
2020/12/26 03:02:22;;;;;;;14.95;8.45;;;;;;;;;;5073475;28;20500;-75
2020/12/26 03:05:26;;;;;;;6.93;4.10;;;;;;;;;;5073102;28;20366;-75
2020/12/26 03:08:31;;;;;;;9.40;4.53;;;;;;;;;;5073176;28;20369;-75
2020/12/26 03:11:35;;;;;;;10.65;5.35;;;;;;;;;;5073344;28;20048;-75
2020/12/26 03:14:39;;;;;;;8.23;4.90;;;;;;;;;;5073273;28;20384;-75
2020/12/26 03:17:43;;;;;;;7.45;3.95;;;;;;;;;;5072970;28;20032;-75
2020/12/26 03:20:48;;;;;;;7.32;3.90;;;;;;;;;;5072996;28;20484;-75
2020/12/26 03:23:52;;;;;;;6.32;4.60;;;;;;;;;;5072596;28;20032;-75
2020/12/26 03:26:57;;;;;;;7.47;4.30;;;;;;;;;;5072610;28;20044;-75
2020/12/26 03:30:01;;;;;;;4.90;3.78;;;;;;;;;;5072519;28;20032;-75
2020/12/26 03:33:06;;;;;;;7.65;4.28;;;;;;;;;;5072534;28;20044;-75
2020/12/26 03:36:10;;;;;;;7.13;4.68;;;;;;;;;;5071840;28;20045;-75
2020/12/26 03:39:14;;;;;;;10.75;5.45;;;;;;;;;;5072153;28;20502;-75
2020/12/26 03:42:18;;;;;;;9.60;5.35;;;;;;;;;;5073023;28;20041;-75
2020/12/26 03:45:23;;;;;;;8.80;5.20;;;;;;;;;;5072331;28;20041;-75
2020/12/26 03:48:27;;;;;;;9.85;5.55;;;;;;;;;;5071534;28;20492;-75
2020/12/26 03:51:31;;;;;;;8.90;5.75;;;;;;;;;;5072432;28;20036;-75
2020/12/26 03:54:36;;;;;;;8.43;5.85;;;;;;;;;;5072254;28;20526;-75
2020/12/26 03:57:40;;;;;;;11.20;5.90;;;;;;;;;;5071882;28;20037;-75
2020/12/26 04:00:44;;;;;;;11.35;5.55;;;;;;;;;;5072150;28;20045;-75
2020/12/26 04:03:48;;;;;;;16.52;10.13;;;;;;;;;;5072140;28;20047;-75
2020/12/26 04:06:53;;;;;;;21.40;11.40;;;;;;;;;;5071812;28;20048;-75
2020/12/26 04:09:57;;;;;;;14.90;7.82;;;;;;;;;;5071841;28;20044;-75
2020/12/26 04:13:02;;;;;;;10.95;6.32;;;;;;;;;;5071880;28;20040;-75
2020/12/26 04:16:10;;;;;;;9.75;6.10;;;;;;;;;;5071768;28;20036;-75
2020/12/26 04:19:14;;;;;;;8.85;6.57;;;;;;;;;;5071855;28;20029;-75
2020/12/26 04:22:18;;;;;;;12.20;6.05;;;;;;;;;;5071900;28;20040;-75
2020/12/26 04:25:22;;;;;;;6.80;5.32;;;;;;;;;;5071698;28;20515;-75
2020/12/26 04:28:27;;;;;;;7.85;5.43;;;;;;;;;;5071539;28;20048;-75
2020/12/26 04:31:31;;;;;;;9.18;5.32;;;;;;;;;;5071695;28;20036;-75
2020/12/26 04:34:35;;;;;;;6.90;5.28;;;;;;;;;;5070874;28;20049;-75
2020/12/26 04:37:40;;;;;;;10.93;6.88;;;;;;;;;;5071439;28;20036;-75
2020/12/26 04:40:46;;;;;;;11.55;6.45;;;;;;;;;;5071580;28;20032;-75
2020/12/26 04:43:54;;;;;;;15.30;7.82;;;;;;;;;;5071529;28;20150;-75
2020/12/26 04:47:04;;;;;;;12.25;6.82;;;;;;;;;;5070290;28;20048;-75
2020/12/26 04:50:09;;;;;;;9.27;6.47;;;;;;;;;;5071485;28;20521;-75
2020/12/26 04:53:16;;;;;;;12.00;7.70;;;;;;;;;;5070796;28;20040;-75
2020/12/26 04:56:21;;;;;;;12.00;7.13;;;;;;;;;;5071262;28;20044;-75
2020/12/26 04:59:25;;;;;;;12.30;7.05;;;;;;;;;;5071330;28;20051;-75
2020/12/26 05:02:35;;;;;;;11.85;8.13;;;;;;;;;;5071183;28;20044;-75
2020/12/26 05:05:44;;;;;;;15.18;8.15;;;;;;;;;;5071236;28;20032;-75
2020/12/26 05:08:51;;;;;;;15.82;7.38;;;;;;;;;;5071223;28;20492;-75
2020/12/26 05:11:56;;;;;;;19.42;7.43;;;;;;;;;;5071171;28;20041;-75
2020/12/26 05:15:03;;;;;;;12.02;7.35;;;;;;;;;;5071107;28;20121;-75
2020/12/26 05:18:08;;;;;;;8.32;5.68;;;;;;;;;;5070970;28;20386;-75
2020/12/26 05:21:12;;;;;;;12.52;6.45;;;;;;;;;;5071235;28;20044;-75
2020/12/26 05:24:17;;;;;;;8.20;5.22;;;;;;;;;;5070751;28;20048;-75
2020/12/26 05:27:25;;;;;;;7.50;5.30;;;;;;;;;;5070680;28;20049;-75
2020/12/26 05:30:29;;;;;;;15.73;9.77;;;;;;;;;;5071079;28;20041;-75
2020/12/26 05:33:34;;;;;;;9.77;6.90;;;;;;;;;;5070764;28;20044;-75
2020/12/26 05:36:39;;;;;;;9.13;5.35;;;;;;;;;;5070839;28;20041;-75
2020/12/26 05:39:43;;;;;;;9.20;6.22;;;;;;;;;;5070995;28;20032;-75
2020/12/26 05:42:49;;;;;;;8.27;5.88;;;;;;;;;;5070192;28;20049;-75
2020/12/26 05:45:53;;;;;;;9.68;6.68;;;;;;;;;;5070688;28;20506;-75
2020/12/26 05:48:58;;;;;;;8.00;5.70;;;;;;;;;;5070646;28;20041;-75
2020/12/26 05:52:09;;;;;;;10.13;6.72;;;;;;;;;;5070568;28;20040;-75
2020/12/26 05:55:17;;;;;;;;;;;;;;;;;;5071266;28;20056;-75
2020/12/26 05:58:25;;;;;;;9.57;7.05;;;;;;;;;;5058228;28;19916;-75
2020/12/26 06:01:32;;;;;;;13.70;7.78;;;;;;;;;;5070523;28;20036;-75
2020/12/26 06:04:36;;;;;;;16.33;8.02;;;;;;;;;;5073005;28;20032;-75
2020/12/26 06:07:41;;;;;;;10.23;8.10;;;;;;;;;;5074392;28;20369;-75
2020/12/26 06:10:55;;;;;;;11.93;7.30;;;;;;;;;;5074509;28;20491;-75
2020/12/26 06:14:00;;;;;;;10.40;6.15;;;;;;;;;;5074470;28;20040;-75
2020/12/26 06:17:04;;;;;;;9.75;6.57;;;;;;;;;;5074426;28;20040;-75
2020/12/26 06:20:09;;;;;;;10.65;6.57;;;;;;;;;;5074303;28;20048;-75
2020/12/26 06:23:17;;;;;;;8.68;6.40;;;;;;;;;;5074314;28;20039;-75
2020/12/26 06:26:22;;;;;;;9.52;6.07;;;;;;;;;;5073765;28;20488;-75
2020/12/26 06:29:29;;;;;;;11.93;8.50;;;;;;;;;;5074045;28;20037;-75
2020/12/26 06:32:33;;;;;;;13.25;6.63;;;;;;;;;;5074035;28;20036;-75
2020/12/26 06:35:42;;;;;;;10.80;6.93;;;;;;;;;;5073856;28;20036;-75
2020/12/26 06:38:46;;;;;;;7.03;5.00;;;;;;;;;;5075183;28;20389;-75
2020/12/26 06:42:09;;;;;;;7.68;4.95;;;;;;;;;;5073794;28;20040;-74
2020/12/26 06:45:28;;;;;;;5.38;4.15;;;;;;;;;;5073414;28;20040;-74
2020/12/26 06:48:37;;;;;;;7.72;3.72;;;;;;;;;;5073335;28;20053;-75
2020/12/26 06:51:44;;;;;;;6.78;4.25;;;;;;;;;;5073456;28;20028;-75
2020/12/26 06:54:48;;;;;;;6.70;3.95;;;;;;;;;;5073397;28;20032;-75
2020/12/26 06:57:52;;;;;;;6.80;3.47;;;;;;;;;;5073520;28;20369;-75
2020/12/26 07:00:56;;;;;;;6.85;3.10;;;;;;;;;;5072775;28;20480;-75
2020/12/26 07:04:20;;;;;;;4.55;2.72;;;;;;;;;;5073538;28;20025;-75
2020/12/26 07:07:37;;;;;;;3.95;2.42;;;;;;;;;;5073029;28;20036;-75
2020/12/26 07:10:42;;;;;;;5.82;2.08;;;;;;;;;;5073280;28;20033;-75
2020/12/26 07:13:46;;;;;;;4.13;2.10;;;;;;;;;;5072986;28;20036;-75
2020/12/26 07:16:50;;;;;;;5.68;2.35;;;;;;;;;;5072218;28;20040;-75
2020/12/26 07:19:59;;;;;;;3.00;1.90;;;;;;;;;;5073268;28;20033;-75
2020/12/26 07:23:13;;;;;;;4.43;1.92;;;;;;;;;;5072991;28;20045;-75
2020/12/26 07:26:19;;;;;;;4.35;2.65;;;;;;;;;;5072546;28;20037;-75
2020/12/26 07:29:26;;;;;;;3.13;2.60;;;;;;;;;;5072923;28;20048;-75
2020/12/26 07:32:38;;;;;;;6.05;3.15;;;;;;;;;;5072773;28;20044;-75
2020/12/26 07:35:42;;;;;;;6.30;3.70;;;;;;;;;;5072662;28;20040;-75
2020/12/26 07:39:01;;;;;;;6.47;4.32;;;;;;;;;;5071651;28;20040;-75
2020/12/26 07:42:05;;;;;;;8.07;4.13;;;;;;;;;;5072308;28;20040;-75
2020/12/26 07:45:14;;;;;;;5.43;4.20;;;;;;;;;;5071237;28;20484;-77
2020/12/26 07:48:19;;;;;;;5.40;4.10;;;;;;;;;;5072148;28;20040;-74
2020/12/26 07:51:24;;;;;;;9.55;4.10;;;;;;;;;;5072402;28;20473;-74
2020/12/26 07:54:31;;;;;;;7.65;5.18;;;;;;;;;;5072404;28;20037;-74
2020/12/26 07:57:35;;;;;;;10.52;6.00;;;;;;;;;;5072267;28;20033;-74
2020/12/26 08:00:40;;;;;;;9.05;5.72;;;;;;;;;;5071492;28;20051;-74
2020/12/26 08:03:45;;;;;;;8.18;5.30;;;;;;;;;;5071992;28;20028;-73
2020/12/26 08:06:49;;;;;;;24.83;15.90;;;;;;;;;;5071944;28;20385;-75
2020/12/26 08:09:55;;;;;;;9.80;6.18;;;;;;;;;;5072242;28;20043;-74
2020/12/26 08:12:59;;;;;;;8.95;5.65;;;;;;;;;;5071937;28;20488;-74
2020/12/26 08:16:05;;;;;;;9.93;5.72;;;;;;;;;;5071581;28;20084;-75
2020/12/26 08:19:09;;;;;;;9.93;6.15;;;;;;;;;;5071901;28;20044;-74
2020/12/26 08:22:14;;;;;;;10.27;5.95;;;;;;;;;;5071420;28;20032;-74
2020/12/26 08:25:20;;;;;;;10.63;6.18;;;;;;;;;;5070901;28;20053;-74
2020/12/26 08:28:24;;;;;;;8.95;5.95;;;;;;;;;;5071430;28;20052;-74
2020/12/26 08:31:30;;;;;;;40.35;27.33;;;;;;;;;;5071621;28;20040;-74
2020/12/26 08:34:54;;;;;;;10.18;5.50;;;;;;;;;;5071958;28;20047;-75
2020/12/26 08:38:04;;;;;;;9.73;4.72;;;;;;;;;;5071726;28;20503;-74
2020/12/26 08:41:12;;;;;;;16.17;4.78;;;;;;;;;;5071451;28;20365;-74
2020/12/26 08:44:16;;;;;;;6.20;4.13;;;;;;;;;;5071524;28;20523;-75
2020/12/26 08:47:31;;;;;;;7.68;4.43;;;;;;;;;;5069955;28;20045;-74
2020/12/26 08:50:35;;;;;;;17.40;10.73;;;;;;;;;;5071167;28;20565;-73
2020/12/26 08:53:42;;;;;;;7.85;4.90;;;;;;;;;;5071385;28;20047;-73
2020/12/26 08:56:46;;;;;;;7.65;5.18;;;;;;;;;;5071635;28;20036;-74
2020/12/26 08:59:50;;;;;;;88.40;62.65;;;;;;;;;;5071378;28;20044;-75
2020/12/26 09:02:55;;;;;;;7.95;5.35;;;;;;;;;;5070942;28;20043;-75
2020/12/26 09:06:00;;;;;;;6.65;4.22;;;;;;;;;;5070795;28;20270;-75
2020/12/26 09:09:18;;;;;;;6.72;4.35;;;;;;;;;;5071024;28;20048;-74
2020/12/26 09:12:22;;;;;;;7.85;4.68;;;;;;;;;;5071103;28;20036;-74
2020/12/26 09:15:27;;;;;;;6.13;4.60;;;;;;;;;;5070625;28;20033;-75
2020/12/26 09:18:36;;;;;;;7.25;5.38;;;;;;;;;;5071189;28;20040;-74
2020/12/26 09:21:40;;;;;;;11.18;5.40;;;;;;;;;;5071213;28;20476;-74
2020/12/26 09:24:44;;;;;;;7.30;5.30;;;;;;;;;;5071123;28;20244;-74
2020/12/26 09:28:00;;;;;;;9.07;5.55;;;;;;;;;;5070831;28;20052;-74
2020/12/26 09:31:09;;;;;;;10.98;6.85;;;;;;;;;;5070890;28;20037;-74
2020/12/26 09:34:35;;;;;;;14.40;8.65;;;;;;;;;;5070758;28;20037;-74
2020/12/26 09:37:50;;;;;;;10.45;7.38;;;;;;;;;;5071217;28;20036;-74
2020/12/26 09:40:55;;;;;;;9.20;6.47;;;;;;;;;;5074699;28;20033;-74
2020/12/26 09:44:00;;;;;;;11.25;7.50;;;;;;;;;;5097131;28;20045;-74
2020/12/26 09:47:06;;;;;;;11.23;7.53;;;;;;;;;;5074147;28;20050;-74
2020/12/26 09:50:10;;;;;;;16.35;9.88;;;;;;;;;;5074532;28;20036;-74
2020/12/26 09:53:14;;;;;;;15.60;9.70;;;;;;;;;;5074493;28;20040;-74
2020/12/26 09:56:19;;;;;;;41.20;21.48;;;;;;;;;;5074385;28;20040;-74
2020/12/26 09:59:24;;;;;;;22.50;14.13;;;;;;;;;;5074379;28;20043;-74
2020/12/26 10:02:28;;;;;;;9.80;7.30;;;;;;;;;;5074525;28;20055;-74
2020/12/26 10:05:33;;;;;;;32.17;20.17;;;;;;;;;;5074043;28;20029;-74
2020/12/26 10:08:37;;;;;;;23.38;15.00;;;;;;;;;;5073950;28;20656;-74
2020/12/26 10:11:42;;;;;;;17.48;11.07;;;;;;;;;;5073965;28;20036;-74
2020/12/26 10:14:46;;;;;;;14.40;11.00;;;;;;;;;;5074336;28;20495;-74
2020/12/26 10:17:51;;;;;;;20.33;13.70;;;;;;;;;;5074196;28;20044;-74
2020/12/26 10:20:55;;;;;;;20.73;14.25;;;;;;;;;;5073447;28;20499;-74
2020/12/26 10:23:59;;;;;;;16.95;11.40;;;;;;;;;;5084736;28;20044;-74
2020/12/26 10:27:04;;;;;;;19.65;11.13;;;;;;;;;;5073900;28;20056;-74
2020/12/26 10:30:08;;;;;;;21.25;13.10;;;;;;;;;;5073734;28;20067;-75
2020/12/26 10:33:12;;;;;;;20.30;13.60;;;;;;;;;;5073836;28;20040;-74
2020/12/26 10:36:17;;;;;;;20.33;12.73;;;;;;;;;;5072560;28;20396;-74
2020/12/26 10:39:21;;;;;;;18.65;13.18;;;;;;;;;;5073786;28;20498;-75
2020/12/26 10:42:26;;;;;;;20.77;12.95;;;;;;;;;;5073806;28;20396;-74
2020/12/26 10:45:30;;;;;;;19.38;13.52;;;;;;;;;;5073530;28;20048;-74
2020/12/26 10:48:35;;;;;;;17.75;10.82;;;;;;;;;;5073248;28;20071;-74
2020/12/26 10:51:39;;;;;;;12.40;8.52;;;;;;;;;;5073388;28;20388;-75
2020/12/26 10:54:44;;;;;;;11.10;8.00;;;;;;;;;;5073448;28;20032;-74
2020/12/26 10:57:48;;;;;;;11.02;7.70;;;;;;;;;;5072810;28;20044;-74
2020/12/26 11:00:52;;;;;;;12.02;7.47;;;;;;;;;;5073284;28;20384;-75
2020/12/26 11:03:57;;;;;;;9.43;6.93;;;;;;;;;;5072785;28;20134;-75
2020/12/26 11:07:01;;;;;;;13.70;7.97;;;;;;;;;;5072744;28;20476;-75
2020/12/26 11:10:05;;;;;;;13.90;10.70;;;;;;;;;;5072906;28;20407;-74
2020/12/26 11:13:10;;;;;;;29.65;17.58;;;;;;;;;;5071886;28;20044;-75
2020/12/26 11:16:16;;;;;;;21.33;15.02;;;;;;;;;;5072782;28;20055;-73
2020/12/26 11:19:20;;;;;;;18.20;11.88;;;;;;;;;;5072750;28;20404;-76
2020/12/26 11:22:24;;;;;;;13.20;9.57;;;;;;;;;;5071936;28;20396;-74
2020/12/26 11:25:29;;;;;;;14.10;8.93;;;;;;;;;;5072673;28;20040;-74
2020/12/26 11:28:33;;;;;;;10.88;7.60;;;;;;;;;;5072603;28;20053;-74
2020/12/26 11:31:38;;;;;;;10.55;7.60;;;;;;;;;;5072660;28;20075;-74
2020/12/26 11:34:47;;;;;;;10.93;7.30;;;;;;;;;;5072747;28;20541;-75
2020/12/26 11:37:52;;;;;;;8.75;6.13;;;;;;;;;;5072370;28;20036;-74
2020/12/26 11:40:56;;;;;;;9.88;6.78;;;;;;;;;;5072173;28;20037;-74
2020/12/26 11:44:00;;;;;;;11.27;7.93;;;;;;;;;;5072218;28;20036;-74
2020/12/26 11:47:04;;;;;;;12.05;7.65;;;;;;;;;;5072073;28;20048;-74
2020/12/26 11:50:09;;;;;;;11.35;8.60;;;;;;;;;;5072487;28;20044;-74
2020/12/26 11:53:13;;;;;;;15.85;11.60;;;;;;;;;;5072186;28;20484;-74
2020/12/26 11:56:18;;;;;;;20.45;13.80;;;;;;;;;;5071935;28;20051;-74
2020/12/26 11:59:22;;;;;;;19.20;13.68;;;;;;;;;;5070940;28;20039;-75
2020/12/26 12:02:26;;;;;;;19.50;13.48;;;;;;;;;;5071734;28;20048;-74
2020/12/26 12:05:31;;;;;;;23.80;15.13;;;;;;;;;;5071401;28;20051;-74
2020/12/26 12:08:35;;;;;;;22.95;15.43;;;;;;;;;;5071825;28;20055;-75
2020/12/26 12:11:39;;;;;;;24.08;17.40;;;;;;;;;;5071970;28;20047;-74
2020/12/26 12:14:43;;;;;;;45.05;32.40;;;;;;;;;;5071700;28;20039;-75
2020/12/26 12:17:48;;;;;;;25.83;17.25;;;;;;;;;;5071410;28;20043;-76
2020/12/26 12:20:52;;;;;;;26.23;18.33;;;;;;;;;;5071696;28;20063;-77
2020/12/26 12:23:57;;;;;;;28.90;19.20;;;;;;;;;;5071797;28;20491;-76
2020/12/26 12:27:01;;;;;;;28.05;19.67;;;;;;;;;;5071359;28;20405;-76
2020/12/26 12:30:05;;;;;;;28.35;20.40;;;;;;;;;;5071561;28;20055;-77
2020/12/26 12:33:13;;;;;;;34.58;21.17;;;;;;;;;;5071684;28;20043;-76
2020/12/26 12:36:17;;;;;;;31.58;21.17;;;;;;;;;;5071583;28;20048;-77
2020/12/26 12:39:22;;;;;;;30.23;20.88;;;;;;;;;;5071583;28;20039;-76
2020/12/26 12:42:30;;;;;;;89.28;61.30;;;;;;;;;;5082148;28;20067;-73
2020/12/26 12:45:34;;;;;;;29.92;21.38;;;;;;;;;;5070920;28;20048;-76
2020/12/26 12:48:39;;;;;;;25.15;17.65;;;;;;;;;;5070851;28;20055;-76
2020/12/26 12:51:43;;;;;;;28.77;19.88;;;;;;;;;;5071207;28;20039;-76
2020/12/26 12:54:48;;;;;;;23.58;16.77;;;;;;;;;;5070102;28;20044;-76
2020/12/26 12:57:53;;;;;;;21.90;14.45;;;;;;;;;;5071259;28;20044;-76
2020/12/26 13:00:57;;;;;;;20.58;13.73;;;;;;;;;;5070239;28;20040;-76
2020/12/26 13:04:02;;;;;;;17.60;12.23;;;;;;;;;;5071403;28;20400;-76
2020/12/26 13:07:07;;;;;;;18.92;13.40;;;;;;;;;;5070909;28;20044;-76
2020/12/26 13:10:11;;;;;;;15.88;10.50;;;;;;;;;;5070811;28;20044;-76
2020/12/26 13:13:19;;;;;;;76.60;42.03;;;;;;;;;;5070250;28;20083;-76
2020/12/26 13:16:23;;;;;;;12.68;9.27;;;;;;;;;;5070652;28;20047;-76
2020/12/26 13:19:28;;;;;;;11.43;9.10;;;;;;;;;;5070981;28;20043;-74
2020/12/26 13:22:34;;;;;;;14.98;10.38;;;;;;;;;;5071275;28;20040;-78
2020/12/26 13:25:43;;;;;;;13.68;9.77;;;;;;;;;;5071119;28;20047;-77
2020/12/26 13:28:52;;;;;;;13.77;9.50;;;;;;;;;;5070581;28;20049;-78
2020/12/26 13:31:56;;;;;;;11.55;8.52;;;;;;;;;;5081783;28;20032;-76
2020/12/26 13:35:00;;;;;;;28.38;18.98;;;;;;;;;;5071149;28;20058;-76
2020/12/26 13:38:08;;;;;;;11.80;7.60;;;;;;;;;;5071159;28;20048;-75
2020/12/26 13:41:14;;;;;;;8.05;5.57;;;;;;;;;;5070847;28;20036;-76
2020/12/26 13:44:32;;;;;;;9.38;6.22;;;;;;;;;;5071279;28;20037;-77
2020/12/26 13:47:36;;;;;;;8.20;6.13;;;;;;;;;;5071011;28;20492;-76
2020/12/26 13:50:52;;;;;;;7.88;6.22;;;;;;;;;;5070451;28;20032;-76
2020/12/26 13:53:56;;;;;;;10.52;6.95;;;;;;;;;;5070643;28;20032;-78
2020/12/26 13:57:00;;;;;;;11.55;7.68;;;;;;;;;;5070018;28;20404;-76
2020/12/26 14:00:07;;;;;;;12.57;8.55;;;;;;;;;;5070492;28;20044;-77
2020/12/26 14:03:17;;;;;;;13.95;8.55;;;;;;;;;;5071005;28;20040;-75
2020/12/26 14:06:31;;;;;;;15.70;10.70;;;;;;;;;;5070943;28;20036;-75
2020/12/26 14:09:36;;;;;;;19.27;12.13;;;;;;;;;;5071085;28;20150;-77
2020/12/26 14:12:41;;;;;;;16.35;10.57;;;;;;;;;;5070960;28;20044;-76
2020/12/26 14:15:47;;;;;;;13.00;8.85;;;;;;;;;;5071130;28;20056;-76
2020/12/26 14:18:55;;;;;;;13.40;9.30;;;;;;;;;;5071324;28;20037;-76
2020/12/26 14:21:59;;;;;;;26.13;15.65;;;;;;;;;;5071686;28;20052;-76
2020/12/26 14:25:03;;;;;;;13.98;10.40;;;;;;;;;;5073715;28;20036;-76
2020/12/26 14:28:08;;;;;;;15.77;10.70;;;;;;;;;;5074883;28;20052;-77
2020/12/26 14:31:18;;;;;;;15.15;11.52;;;;;;;;;;5062233;28;20036;-79
2020/12/26 14:34:22;;;;;;;17.10;11.90;;;;;;;;;;5075677;28;20036;-77
2020/12/26 14:37:27;;;;;;;20.25;13.48;;;;;;;;;;5073300;28;20047;-75
2020/12/26 14:40:36;;;;;;;25.63;16.90;;;;;;;;;;5074461;28;20050;-75
2020/12/26 14:43:40;;;;;;;25.05;17.00;;;;;;;;;;5074104;28;20052;-75
2020/12/26 14:46:45;;;;;;;33.97;22.33;;;;;;;;;;5072284;28;20491;-75
2020/12/26 14:49:49;;;;;;;41.90;25.90;;;;;;;;;;5072870;28;20068;-76
2020/12/26 14:52:53;;;;;;;32.22;22.60;;;;;;;;;;5073688;28;20047;-76
2020/12/26 14:55:58;;;;;;;36.55;23.08;;;;;;;;;;5073412;28;20047;-75
2020/12/26 14:59:02;;;;;;;34.55;23.45;;;;;;;;;;5073327;28;20047;-75
2020/12/26 15:02:07;;;;;;;24.33;16.95;;;;;;;;;;5073404;28;20048;-75
2020/12/26 15:05:11;;;;;;;36.38;22.73;;;;;;;;;;5073322;28;20388;-75
2020/12/26 15:08:16;;;;;;;34.47;22.90;;;;;;;;;;5073337;28;20404;-76
2020/12/26 15:11:20;;;;;;;31.40;22.63;;;;;;;;;;5073215;28;20043;-76
2020/12/26 15:14:24;;;;;;;30.73;22.23;;;;;;;;;;5073574;28;20043;-76
2020/12/26 15:17:28;;;;;;;34.40;22.92;;;;;;;;;;5073672;28;20517;-78
2020/12/26 15:20:33;;;;;;;35.72;25.05;;;;;;;;;;5073647;28;20056;-75
2020/12/26 15:23:38;;;;;;;37.20;26.33;;;;;;;;;;5073220;28;20035;-75
2020/12/26 15:26:43;;;;;;;38.92;28.00;;;;;;;;;;5072764;28;20035;-75
2020/12/26 15:29:47;;;;;;;40.10;28.25;;;;;;;;;;5072616;28;20051;-72
2020/12/26 15:32:51;;;;;;;36.90;27.05;;;;;;;;;;5072868;28;20044;-73
2020/12/26 15:35:56;;;;;;;38.65;25.90;;;;;;;;;;5071680;28;20040;-74
2020/12/26 15:39:00;;;;;;;35.15;26.08;;;;;;;;;;5071865;28;20044;-75
2020/12/26 15:42:04;;;;;;;42.58;30.42;;;;;;;;;;5072533;28;20051;-74
2020/12/26 15:45:08;;;;;;;59.65;40.80;;;;;;;;;;5072320;28;20043;-74
2020/12/26 15:48:13;;;;;;;90.85;58.85;;;;;;;;;;5071600;28;20051;-72
2020/12/26 15:51:17;;;;;;;51.25;37.47;;;;;;;;;;5073811;28;20048;-74
2020/12/26 15:54:22;;;;;;;166.45;113.70;;;;;;;;;;5071578;28;20043;-73
2020/12/26 15:57:26;;;;;;;72.10;50.53;;;;;;;;;;5071993;28;20032;-74
2020/12/26 16:00:30;;;;;;;57.75;41.42;;;;;;;;;;5072104;28;20039;-73
2020/12/26 16:03:35;;;;;;;52.75;38.15;;;;;;;;;;5072131;28;20047;-72
2020/12/26 16:06:39;;;;;;;45.80;33.00;;;;;;;;;;5072103;28;20063;-73
2020/12/26 16:09:44;;;;;;;166.30;114.90;;;;;;;;;;5071862;28;20051;-72
2020/12/26 16:12:48;;;;;;;79.40;59.33;;;;;;;;;;5071800;28;20737;-75
2020/12/26 16:15:52;;;;;;;38.83;25.45;;;;;;;;;;5070964;28;20380;-74
2020/12/26 16:18:57;;;;;;;47.10;29.15;;;;;;;;;;5071008;28;20052;-74
2020/12/26 16:22:01;;;;;;;39.33;23.85;;;;;;;;;;5071797;28;20059;-75
2020/12/26 16:25:06;;;;;;;44.55;28.73;;;;;;;;;;5071780;28;20036;-75
2020/12/26 16:28:11;;;;;;;39.47;27.33;;;;;;;;;;5071619;28;20055;-75
2020/12/26 16:31:16;;;;;;;36.72;25.15;;;;;;;;;;5071348;28;20035;-75
2020/12/26 16:34:20;;;;;;;35.03;24.48;;;;;;;;;;5071408;28;20051;-76
2020/12/26 16:37:24;;;;;;;48.22;35.38;;;;;;;;;;5071454;28;20047;-75
2020/12/26 16:40:29;;;;;;;46.72;33.47;;;;;;;;;;5071649;28;20040;-75
2020/12/26 16:43:34;;;;;;;33.67;24.67;;;;;;;;;;5071487;28;20040;-75
2020/12/26 16:46:39;;;;;;;37.80;26.45;;;;;;;;;;5070818;28;20051;-75
2020/12/26 16:49:44;;;;;;;40.63;27.08;;;;;;;;;;5071190;28;20052;-75
2020/12/26 16:52:48;;;;;;;42.97;27.05;;;;;;;;;;5071501;28;20043;-75
2020/12/26 16:55:52;;;;;;;34.83;23.73;;;;;;;;;;5071432;28;20052;-75
2020/12/26 16:58:57;;;;;;;33.38;23.70;;;;;;;;;;5071213;28;20044;-75
2020/12/26 17:02:04;;;;;;;38.83;29.60;;;;;;;;;;5071500;28;20043;-75
2020/12/26 17:05:10;;;;;;;44.60;32.22;;;;;;;;;;5071175;28;20468;-75
2020/12/26 17:08:14;;;;;;;43.90;28.15;;;;;;;;;;5070096;28;20052;-75
2020/12/26 17:11:19;;;;;;;42.28;29.27;;;;;;;;;;5071269;28;20051;-75
2020/12/26 17:14:23;;;;;;;38.67;26.15;;;;;;;;;;5071266;28;20047;-75
2020/12/26 17:17:27;;;;;;;39.45;27.10;;;;;;;;;;5070044;28;20051;-75
2020/12/26 17:20:32;;;;;;;27.15;18.75;;;;;;;;;;5070141;28;20047;-76
2020/12/26 17:23:36;;;;;;;29.23;21.83;;;;;;;;;;5071034;28;20036;-75
2020/12/26 17:26:41;;;;;;;33.10;23.65;;;;;;;;;;5070651;28;20052;-75
2020/12/26 17:29:45;;;;;;;30.83;21.65;;;;;;;;;;5070458;28;20060;-75
2020/12/26 17:32:50;;;;;;;37.22;24.92;;;;;;;;;;5071059;28;20056;-75
2020/12/26 17:35:54;;;;;;;42.80;28.27;;;;;;;;;;5070798;28;20511;-75
2020/12/26 17:38:59;;;;;;;50.05;31.73;;;;;;;;;;5069976;28;20047;-75
2020/12/26 17:42:03;;;;;;;54.50;34.13;;;;;;;;;;5071013;28;20499;-75
2020/12/26 17:45:11;;;;;;;46.03;29.98;;;;;;;;;;5070623;28;20047;-75
2020/12/26 17:48:15;;;;;;;38.13;28.23;;;;;;;;;;5070793;28;20052;-75
2020/12/26 17:51:19;;;;;;;44.20;30.63;;;;;;;;;;5070815;28;20044;-75
2020/12/26 17:54:24;;;;;;;42.20;29.33;;;;;;;;;;5070669;28;20051;-75
2020/12/26 17:57:28;;;;;;;56.85;38.60;;;;;;;;;;5069932;28;20384;-75
2020/12/26 18:00:32;;;;;;;55.97;39.80;;;;;;;;;;5074097;28;20522;-75
2020/12/26 18:03:38;;;;;;;57.75;37.28;;;;;;;;;;5074309;28;20412;-76
2020/12/26 18:06:47;;;;;;;47.67;33.47;;;;;;;;;;5074221;28;20051;-75
2020/12/26 18:09:51;;;;;;;51.63;34.90;;;;;;;;;;5074268;28;20063;-75
2020/12/26 18:12:55;;;;;;;45.55;34.72;;;;;;;;;;5074000;28;20047;-74
2020/12/26 18:16:00;;;;;;;50.53;35.03;;;;;;;;;;5074174;28;20064;-74